sensor_id;sensor_type;location;lat;lon;timestamp;temperature;humidity
69464;DHT22;56665;41.106;16.688;2023-04-15T00:03:02;12.40;60.80
69464;DHT22;56665;41.106;16.688;2023-04-15T00:06:06;12.37;60.44
69464;DHT22;56665;41.106;16.688;2023-04-15T00:09:09;12.28;60.51
69464;DHT22;56665;41.106;16.688;2023-04-15T00:12:13;12.27;60.63
69464;DHT22;56665;41.106;16.688;2023-04-15T00:15:17;12.26;60.88
69464;DHT22;56665;41.106;16.688;2023-04-15T00:18:23;12.28;60.52
69464;DHT22;56665;41.106;16.688;2023-04-15T00:21:27;12.27;60.59
69464;DHT22;56665;41.106;16.688;2023-04-15T00:24:31;12.28;60.63
69464;DHT22;56665;41.106;16.688;2023-04-15T00:27:35;12.28;60.82
69464;DHT22;56665;41.106;16.688;2023-04-15T00:30:38;12.28;61.05
69464;DHT22;56665;41.106;16.688;2023-04-15T00:33:43;12.26;60.76
69464;DHT22;56665;41.106;16.688;2023-04-15T00:36:47;12.26;60.56
69464;DHT22;56665;41.106;16.688;2023-04-15T00:39:51;12.18;60.35
69464;DHT22;56665;41.106;16.688;2023-04-15T00:42:56;12.16;60.89
69464;DHT22;56665;41.106;16.688;2023-04-15T00:46:00;12.17;61.38
69464;DHT22;56665;41.106;16.688;2023-04-15T00:49:06;12.17;61.04
69464;DHT22;56665;41.106;16.688;2023-04-15T00:52:10;12.16;61.26
69464;DHT22;56665;41.106;16.688;2023-04-15T00:55:14;12.04;61.61
69464;DHT22;56665;41.106;16.688;2023-04-15T00:58:20;12.04;61.36
69464;DHT22;56665;41.106;16.688;2023-04-15T01:01:25;12.01;61.99
69464;DHT22;56665;41.106;16.688;2023-04-15T01:04:29;12.01;62.02
69464;DHT22;56665;41.106;16.688;2023-04-15T01:07:36;12.03;62.01
69464;DHT22;56665;41.106;16.688;2023-04-15T01:10:39;12.00;62.31
69464;DHT22;56665;41.106;16.688;2023-04-15T01:13:43;12.01;62.42
69464;DHT22;56665;41.106;16.688;2023-04-15T01:16:46;12.00;62.21
69464;DHT22;56665;41.106;16.688;2023-04-15T01:19:50;12.01;62.57
69464;DHT22;56665;41.106;16.688;2023-04-15T01:22:56;12.03;62.10
69464;DHT22;56665;41.106;16.688;2023-04-15T01:26:00;11.97;62.64
69464;DHT22;56665;41.106;16.688;2023-04-15T01:29:04;12.00;63.14
69464;DHT22;56665;41.106;16.688;2023-04-15T01:32:07;11.97;62.82
69464;DHT22;56665;41.106;16.688;2023-04-15T01:35:31;11.97;62.87
69464;DHT22;56665;41.106;16.688;2023-04-15T01:38:36;11.91;63.25
69464;DHT22;56665;41.106;16.688;2023-04-15T01:41:40;11.89;63.18
69464;DHT22;56665;41.106;16.688;2023-04-15T01:44:46;11.87;63.47
69464;DHT22;56665;41.106;16.688;2023-04-15T01:47:51;11.86;63.42
69464;DHT22;56665;41.106;16.688;2023-04-15T01:50:57;11.80;63.71
69464;DHT22;56665;41.106;16.688;2023-04-15T01:54:02;11.80;63.61
69464;DHT22;56665;41.106;16.688;2023-04-15T01:57:08;11.77;63.83
69464;DHT22;56665;41.106;16.688;2023-04-15T02:00:14;11.70;63.93
69464;DHT22;56665;41.106;16.688;2023-04-15T02:03:20;11.66;63.92
69464;DHT22;56665;41.106;16.688;2023-04-15T02:06:25;11.55;64.37
69464;DHT22;56665;41.106;16.688;2023-04-15T02:09:33;11.59;64.88
69464;DHT22;56665;41.106;16.688;2023-04-15T02:12:38;11.62;64.63
69464;DHT22;56665;41.106;16.688;2023-04-15T02:15:48;11.59;64.77
69464;DHT22;56665;41.106;16.688;2023-04-15T02:18:53;11.66;64.90
69464;DHT22;56665;41.106;16.688;2023-04-15T02:21:58;11.65;64.58
69464;DHT22;56665;41.106;16.688;2023-04-15T02:25:06;11.70;64.72
69464;DHT22;56665;41.106;16.688;2023-04-15T02:28:11;11.66;63.87
69464;DHT22;56665;41.106;16.688;2023-04-15T02:31:16;11.66;64.57
69464;DHT22;56665;41.106;16.688;2023-04-15T02:34:21;11.65;64.35
69464;DHT22;56665;41.106;16.688;2023-04-15T02:37:26;11.65;64.62
69464;DHT22;56665;41.106;16.688;2023-04-15T02:40:33;11.65;64.09
69464;DHT22;56665;41.106;16.688;2023-04-15T02:43:39;11.68;64.24
69464;DHT22;56665;41.106;16.688;2023-04-15T02:46:45;11.69;64.30
69464;DHT22;56665;41.106;16.688;2023-04-15T02:49:54;11.65;64.28
69464;DHT22;56665;41.106;16.688;2023-04-15T02:53:00;11.65;64.45
69464;DHT22;56665;41.106;16.688;2023-04-15T02:56:06;11.70;64.35
69464;DHT22;56665;41.106;16.688;2023-04-15T02:59:12;11.75;64.41
69464;DHT22;56665;41.106;16.688;2023-04-15T03:02:17;11.70;64.21
69464;DHT22;56665;41.106;16.688;2023-04-15T03:05:22;11.65;64.63
69464;DHT22;56665;41.106;16.688;2023-04-15T03:08:29;11.62;64.92
69464;DHT22;56665;41.106;16.688;2023-04-15T03:11:35;11.66;64.87
69464;DHT22;56665;41.106;16.688;2023-04-15T03:14:46;11.63;64.56
69464;DHT22;56665;41.106;16.688;2023-04-15T03:17:51;11.63;65.32
69464;DHT22;56665;41.106;16.688;2023-04-15T03:20:57;11.72;65.05
69464;DHT22;56665;41.106;16.688;2023-04-15T03:24:02;11.73;64.76
69464;DHT22;56665;41.106;16.688;2023-04-15T03:27:07;11.75;64.66
69464;DHT22;56665;41.106;16.688;2023-04-15T03:30:14;11.76;64.46
69464;DHT22;56665;41.106;16.688;2023-04-15T03:33:20;11.75;64.64
69464;DHT22;56665;41.106;16.688;2023-04-15T03:36:29;11.77;64.88
69464;DHT22;56665;41.106;16.688;2023-04-15T03:39:36;11.80;64.94
69464;DHT22;56665;41.106;16.688;2023-04-15T03:42:41;11.82;64.73
69464;DHT22;56665;41.106;16.688;2023-04-15T03:45:46;11.80;65.10
69464;DHT22;56665;41.106;16.688;2023-04-15T03:48:50;11.86;65.55
69464;DHT22;56665;41.106;16.688;2023-04-15T03:51:56;11.90;65.40
69464;DHT22;56665;41.106;16.688;2023-04-15T03:55:01;11.87;65.70
69464;DHT22;56665;41.106;16.688;2023-04-15T03:58:06;11.89;65.72
69464;DHT22;56665;41.106;16.688;2023-04-15T04:01:11;11.87;66.20
69464;DHT22;56665;41.106;16.688;2023-04-15T04:04:17;11.87;65.89
69464;DHT22;56665;41.106;16.688;2023-04-15T04:07:22;11.86;66.13
69464;DHT22;56665;41.106;16.688;2023-04-15T04:10:27;11.90;65.90
69464;DHT22;56665;41.106;16.688;2023-04-15T04:13:33;11.89;65.65
69464;DHT22;56665;41.106;16.688;2023-04-15T04:16:37;11.89;65.53
69464;DHT22;56665;41.106;16.688;2023-04-15T04:19:42;11.86;65.65
69464;DHT22;56665;41.106;16.688;2023-04-15T04:22:47;11.87;65.71
69464;DHT22;56665;41.106;16.688;2023-04-15T04:25:52;11.91;64.95
69464;DHT22;56665;41.106;16.688;2023-04-15T04:28:57;11.93;64.20
69464;DHT22;56665;41.106;16.688;2023-04-15T04:32:02;11.94;64.24
69464;DHT22;56665;41.106;16.688;2023-04-15T04:35:08;12.03;63.74
69464;DHT22;56665;41.106;16.688;2023-04-15T04:38:13;12.16;62.75
69464;DHT22;56665;41.106;16.688;2023-04-15T04:41:18;12.30;62.32
69464;DHT22;56665;41.106;16.688;2023-04-15T04:44:23;12.40;61.90
69464;DHT22;56665;41.106;16.688;2023-04-15T04:47:28;12.45;61.55
69464;DHT22;56665;41.106;16.688;2023-04-15T04:50:34;12.55;60.90
69464;DHT22;56665;41.106;16.688;2023-04-15T04:53:39;12.65;60.42
69464;DHT22;56665;41.106;16.688;2023-04-15T04:56:45;12.72;60.44
69464;DHT22;56665;41.106;16.688;2023-04-15T04:59:50;12.83;60.08
69464;DHT22;56665;41.106;16.688;2023-04-15T05:02:55;12.92;59.59
69464;DHT22;56665;41.106;16.688;2023-04-15T05:06:00;13.02;59.36
69464;DHT22;56665;41.106;16.688;2023-04-15T05:09:06;12.96;59.17
69464;DHT22;56665;41.106;16.688;2023-04-15T05:12:11;12.93;58.95
69464;DHT22;56665;41.106;16.688;2023-04-15T05:15:18;12.99;58.86
69464;DHT22;56665;41.106;16.688;2023-04-15T05:18:24;13.06;58.70
69464;DHT22;56665;41.106;16.688;2023-04-15T05:21:29;13.16;58.45
69464;DHT22;56665;41.106;16.688;2023-04-15T05:24:35;13.23;58.25
69464;DHT22;56665;41.106;16.688;2023-04-15T05:27:41;13.46;58.15
69464;DHT22;56665;41.106;16.688;2023-04-15T05:30:46;13.53;57.94
69464;DHT22;56665;41.106;16.688;2023-04-15T05:33:52;13.82;57.05
69464;DHT22;56665;41.106;16.688;2023-04-15T05:36:56;14.20;56.18
69464;DHT22;56665;41.106;16.688;2023-04-15T05:40:04;14.44;55.64
69464;DHT22;56665;41.106;16.688;2023-04-15T05:43:10;14.84;55.02
69464;DHT22;56665;41.106;16.688;2023-04-15T05:46:15;15.22;53.88
69464;DHT22;56665;41.106;16.688;2023-04-15T05:49:22;15.38;52.35
69464;DHT22;56665;41.106;16.688;2023-04-15T05:52:27;15.65;51.34
69464;DHT22;56665;41.106;16.688;2023-04-15T05:55:33;15.77;50.27
69464;DHT22;56665;41.106;16.688;2023-04-15T05:58:38;16.10;49.66
69464;DHT22;56665;41.106;16.688;2023-04-15T06:01:43;16.42;49.06
69464;DHT22;56665;41.106;16.688;2023-04-15T06:04:48;16.52;47.65
69464;DHT22;56665;41.106;16.688;2023-04-15T06:07:53;16.66;47.30
69464;DHT22;56665;41.106;16.688;2023-04-15T06:10:58;16.73;47.81
69464;DHT22;56665;41.106;16.688;2023-04-15T06:14:03;16.77;47.59
69464;DHT22;56665;41.106;16.688;2023-04-15T06:17:08;16.70;47.66
69464;DHT22;56665;41.106;16.688;2023-04-15T06:20:13;16.49;47.59
69464;DHT22;56665;41.106;16.688;2023-04-15T06:23:18;16.49;48.17
69464;DHT22;56665;41.106;16.688;2023-04-15T06:26:23;16.76;47.88
69464;DHT22;56665;41.106;16.688;2023-04-15T06:29:28;17.04;47.37
69464;DHT22;56665;41.106;16.688;2023-04-15T06:32:33;17.52;46.78
69464;DHT22;56665;41.106;16.688;2023-04-15T06:35:38;17.78;45.94
69464;DHT22;56665;41.106;16.688;2023-04-15T06:38:43;17.92;45.19
69464;DHT22;56665;41.106;16.688;2023-04-15T06:41:48;17.99;45.03
69464;DHT22;56665;41.106;16.688;2023-04-15T06:44:53;18.14;44.77
69464;DHT22;56665;41.106;16.688;2023-04-15T06:47:57;18.56;44.54
69464;DHT22;56665;41.106;16.688;2023-04-15T06:51:03;18.60;43.59
69464;DHT22;56665;41.106;16.688;2023-04-15T06:54:08;18.77;43.33
69464;DHT22;56665;41.106;16.688;2023-04-15T06:57:14;18.91;44.25
69464;DHT22;56665;41.106;16.688;2023-04-15T07:00:20;19.46;44.72
69464;DHT22;56665;41.106;16.688;2023-04-15T07:03:26;19.61;42.50
69464;DHT22;56665;41.106;16.688;2023-04-15T07:06:31;19.82;42.17
69464;DHT22;56665;41.106;16.688;2023-04-15T07:09:37;20.25;52.41
69464;DHT22;56665;41.106;16.688;2023-04-15T07:12:42;20.66;45.01
69464;DHT22;56665;41.106;16.688;2023-04-15T07:15:47;21.06;46.68
69464;DHT22;56665;41.106;16.688;2023-04-15T07:18:53;21.45;40.68
69464;DHT22;56665;41.106;16.688;2023-04-15T07:21:59;21.45;39.66
69464;DHT22;56665;41.106;16.688;2023-04-15T07:25:05;21.42;39.65
69464;DHT22;56665;41.106;16.688;2023-04-15T07:28:10;21.25;39.76
69464;DHT22;56665;41.106;16.688;2023-04-15T07:31:15;21.39;39.39
69464;DHT22;56665;41.106;16.688;2023-04-15T07:34:23;21.58;39.18
69464;DHT22;56665;41.106;16.688;2023-04-15T07:37:29;21.86;38.72
69464;DHT22;56665;41.106;16.688;2023-04-15T07:40:35;22.26;38.30
69464;DHT22;56665;41.106;16.688;2023-04-15T07:43:40;22.38;37.78
69464;DHT22;56665;41.106;16.688;2023-04-15T07:46:45;22.64;37.30
69464;DHT22;56665;41.106;16.688;2023-04-15T07:49:50;22.69;36.67
69464;DHT22;56665;41.106;16.688;2023-04-15T07:52:55;22.98;36.91
69464;DHT22;56665;41.106;16.688;2023-04-15T07:56:02;23.11;36.08
69464;DHT22;56665;41.106;16.688;2023-04-15T07:59:08;23.25;36.27
69464;DHT22;56665;41.106;16.688;2023-04-15T08:02:13;23.54;35.84
69464;DHT22;56665;41.106;16.688;2023-04-15T08:05:19;23.73;35.48
69464;DHT22;56665;41.106;16.688;2023-04-15T08:08:24;23.47;35.86
69464;DHT22;56665;41.106;16.688;2023-04-15T08:11:30;24.18;34.90
69464;DHT22;56665;41.106;16.688;2023-04-15T08:14:35;24.43;34.51
69464;DHT22;56665;41.106;16.688;2023-04-15T08:17:42;24.48;34.57
69464;DHT22;56665;41.106;16.688;2023-04-15T08:20:47;24.74;33.91
69464;DHT22;56665;41.106;16.688;2023-04-15T08:23:53;25.73;32.39
69464;DHT22;56665;41.106;16.688;2023-04-15T08:26:58;27.26;31.07
69464;DHT22;56665;41.106;16.688;2023-04-15T08:30:04;28.52;28.93
69464;DHT22;56665;41.106;16.688;2023-04-15T08:33:08;29.78;27.74
69464;DHT22;56665;41.106;16.688;2023-04-15T08:36:13;30.72;26.84
69464;DHT22;56665;41.106;16.688;2023-04-15T08:39:18;30.98;26.80
69464;DHT22;56665;41.106;16.688;2023-04-15T08:42:30;31.73;26.09
69464;DHT22;56665;41.106;16.688;2023-04-15T08:45:38;32.03;25.81
69464;DHT22;56665;41.106;16.688;2023-04-15T08:48:47;32.28;25.59
69464;DHT22;56665;41.106;16.688;2023-04-15T08:51:56;32.32;25.32
69464;DHT22;56665;41.106;16.688;2023-04-15T08:55:02;32.35;25.21
69464;DHT22;56665;41.106;16.688;2023-04-15T08:58:09;31.09;26.02
69464;DHT22;56665;41.106;16.688;2023-04-15T09:01:15;30.26;27.01
69464;DHT22;56665;41.106;16.688;2023-04-15T09:04:22;30.57;26.85
69464;DHT22;56665;41.106;16.688;2023-04-15T09:07:27;30.84;26.52
69464;DHT22;56665;41.106;16.688;2023-04-15T09:10:32;30.09;27.20
69464;DHT22;56665;41.106;16.688;2023-04-15T09:13:37;29.82;27.46
69464;DHT22;56665;41.106;16.688;2023-04-15T09:16:57;29.55;27.94
69464;DHT22;56665;41.106;16.688;2023-04-15T09:20:10;29.41;27.89
69464;DHT22;56665;41.106;16.688;2023-04-15T09:23:16;28.89;28.81
69464;DHT22;56665;41.106;16.688;2023-04-15T09:26:33;28.15;29.66
69464;DHT22;56665;41.106;16.688;2023-04-15T09:29:40;28.21;29.37
69464;DHT22;56665;41.106;16.688;2023-04-15T09:32:50;27.76;29.38
69464;DHT22;56665;41.106;16.688;2023-04-15T09:36:02;27.49;29.87
69464;DHT22;56665;41.106;16.688;2023-04-15T09:39:08;27.33;30.38
69464;DHT22;56665;41.106;16.688;2023-04-15T09:42:14;27.57;29.78
69464;DHT22;56665;41.106;16.688;2023-04-15T09:45:19;27.71;30.05
69464;DHT22;56665;41.106;16.688;2023-04-15T09:48:25;28.07;30.01
69464;DHT22;56665;41.106;16.688;2023-04-15T09:51:35;28.18;29.62
69464;DHT22;56665;41.106;16.688;2023-04-15T09:54:43;28.33;29.16
69464;DHT22;56665;41.106;16.688;2023-04-15T09:57:49;27.60;29.28
69464;DHT22;56665;41.106;16.688;2023-04-15T10:00:55;27.97;29.92
69464;DHT22;56665;41.106;16.688;2023-04-15T10:04:04;26.65;30.97
69464;DHT22;56665;41.106;16.688;2023-04-15T10:07:11;25.68;32.18
69464;DHT22;56665;41.106;16.688;2023-04-15T10:10:17;24.70;32.51
69464;DHT22;56665;41.106;16.688;2023-04-15T10:13:24;24.96;33.15
69464;DHT22;56665;41.106;16.688;2023-04-15T10:16:31;26.09;31.64
69464;DHT22;56665;41.106;16.688;2023-04-15T10:19:38;26.33;31.27
69464;DHT22;56665;41.106;16.688;2023-04-15T10:22:45;26.82;31.02
69464;DHT22;56665;41.106;16.688;2023-04-15T10:25:52;27.22;29.39
69464;DHT22;56665;41.106;16.688;2023-04-15T10:29:01;26.68;27.84
69464;DHT22;56665;41.106;16.688;2023-04-15T10:32:08;26.85;27.48
69464;DHT22;56665;41.106;16.688;2023-04-15T10:35:15;26.27;29.47
69464;DHT22;56665;41.106;16.688;2023-04-15T10:38:41;25.97;30.58
69464;DHT22;56665;41.106;16.688;2023-04-15T10:42:05;26.17;30.75
69464;DHT22;56665;41.106;16.688;2023-04-15T10:45:15;26.52;30.40
69464;DHT22;56665;41.106;16.688;2023-04-15T10:48:21;25.75;31.90
69464;DHT22;56665;41.106;16.688;2023-04-15T10:51:29;26.43;30.44
69464;DHT22;56665;41.106;16.688;2023-04-15T10:54:34;26.26;30.45
69464;DHT22;56665;41.106;16.688;2023-04-15T10:57:43;26.04;31.39
69464;DHT22;56665;41.106;16.688;2023-04-15T11:00:52;25.30;31.78
69464;DHT22;56665;41.106;16.688;2023-04-15T11:03:57;24.38;32.40
69464;DHT22;56665;41.106;16.688;2023-04-15T11:07:06;25.18;31.74
69464;DHT22;56665;41.106;16.688;2023-04-15T11:13:34;25.82;30.55
69464;DHT22;56665;41.106;16.688;2023-04-15T11:16:43;25.37;31.39
69464;DHT22;56665;41.106;16.688;2023-04-15T11:19:51;25.13;31.56
69464;DHT22;56665;41.106;16.688;2023-04-15T11:22:55;25.01;32.03
69464;DHT22;56665;41.106;16.688;2023-04-15T11:26:03;24.60;32.58
69464;DHT22;56665;41.106;16.688;2023-04-15T11:29:20;24.66;32.40
69464;DHT22;56665;41.106;16.688;2023-04-15T11:32:24;24.59;32.89
69464;DHT22;56665;41.106;16.688;2023-04-15T11:35:30;24.60;33.67
69464;DHT22;56665;41.106;16.688;2023-04-15T11:38:35;24.31;34.62
69464;DHT22;56665;41.106;16.688;2023-04-15T11:41:41;24.11;34.43
69464;DHT22;56665;41.106;16.688;2023-04-15T11:45:14;24.08;34.45
69464;DHT22;56665;41.106;16.688;2023-04-15T11:48:22;23.54;36.24
69464;DHT22;56665;41.106;16.688;2023-04-15T11:51:31;22.74;38.11
69464;DHT22;56665;41.106;16.688;2023-04-15T11:54:35;22.31;39.10
69464;DHT22;56665;41.106;16.688;2023-04-15T11:57:39;21.85;39.69
69464;DHT22;56665;41.106;16.688;2023-04-15T12:00:55;21.66;40.30
69464;DHT22;56665;41.106;16.688;2023-04-15T12:03:59;21.79;40.57
69464;DHT22;56665;41.106;16.688;2023-04-15T12:07:04;21.56;42.03
69464;DHT22;56665;41.106;16.688;2023-04-15T12:10:10;21.44;42.39
69464;DHT22;56665;41.106;16.688;2023-04-15T12:13:13;21.28;43.54
69464;DHT22;56665;41.106;16.688;2023-04-15T12:16:18;21.06;44.46
69464;DHT22;56665;41.106;16.688;2023-04-15T12:19:39;20.83;45.06
69464;DHT22;56665;41.106;16.688;2023-04-15T12:22:43;20.56;45.56
69464;DHT22;56665;41.106;16.688;2023-04-15T12:25:50;20.11;46.30
69464;DHT22;56665;41.106;16.688;2023-04-15T12:28:58;19.74;48.09
69464;DHT22;56665;41.106;16.688;2023-04-15T12:35:15;19.49;52.39
69464;DHT22;56665;41.106;16.688;2023-04-15T12:38:22;19.37;50.00
69464;DHT22;56665;41.106;16.688;2023-04-15T12:41:27;19.26;48.84
69464;DHT22;56665;41.106;16.688;2023-04-15T12:44:31;19.53;48.45
69464;DHT22;56665;41.106;16.688;2023-04-15T12:47:35;20.11;47.13
69464;DHT22;56665;41.106;16.688;2023-04-15T12:50:40;20.53;45.98
69464;DHT22;56665;41.106;16.688;2023-04-15T12:53:44;20.79;45.50
69464;DHT22;56665;41.106;16.688;2023-04-15T12:56:53;20.66;44.85
69464;DHT22;56665;41.106;16.688;2023-04-15T12:59:57;20.79;44.63
69464;DHT22;56665;41.106;16.688;2023-04-15T13:03:01;20.88;43.83
69464;DHT22;56665;41.106;16.688;2023-04-15T13:06:05;21.03;43.42
69464;DHT22;56665;41.106;16.688;2023-04-15T13:09:09;21.06;43.03
69464;DHT22;56665;41.106;16.688;2023-04-15T13:12:13;21.18;43.37
69464;DHT22;56665;41.106;16.688;2023-04-15T13:15:18;21.22;43.64
69464;DHT22;56665;41.106;16.688;2023-04-15T13:18:23;21.12;44.43
69464;DHT22;56665;41.106;16.688;2023-04-15T13:21:27;21.01;46.45
69464;DHT22;56665;41.106;16.688;2023-04-15T13:24:31;20.84;46.31
69464;DHT22;56665;41.106;16.688;2023-04-15T13:27:35;21.10;46.39
69464;DHT22;56665;41.106;16.688;2023-04-15T13:30:39;21.41;45.11
69464;DHT22;56665;41.106;16.688;2023-04-15T13:33:43;21.66;44.94
69464;DHT22;56665;41.106;16.688;2023-04-15T13:36:48;21.52;45.03
69464;DHT22;56665;41.106;16.688;2023-04-15T13:39:52;21.76;44.29
69464;DHT22;56665;41.106;16.688;2023-04-15T13:42:57;22.12;42.72
69464;DHT22;56665;41.106;16.688;2023-04-15T13:46:02;21.82;44.04
69464;DHT22;56665;41.106;16.688;2023-04-15T13:49:06;21.54;45.06
69464;DHT22;56665;41.106;16.688;2023-04-15T13:52:11;21.66;44.86
69464;DHT22;56665;41.106;16.688;2023-04-15T13:55:15;21.85;44.48
69464;DHT22;56665;41.106;16.688;2023-04-15T13:58:19;22.03;43.75
69464;DHT22;56665;41.106;16.688;2023-04-15T14:01:24;22.27;43.10
69464;DHT22;56665;41.106;16.688;2023-04-15T14:04:28;21.62;44.51
69464;DHT22;56665;41.106;16.688;2023-04-15T14:07:31;21.18;46.02
69464;DHT22;56665;41.106;16.688;2023-04-15T14:10:36;20.60;46.83
69464;DHT22;56665;41.106;16.688;2023-04-15T14:13:42;20.12;48.51
69464;DHT22;56665;41.106;16.688;2023-04-15T14:16:45;20.04;48.15
69464;DHT22;56665;41.106;16.688;2023-04-15T14:19:50;20.07;48.35
69464;DHT22;56665;41.106;16.688;2023-04-15T14:22:53;19.94;48.81
69464;DHT22;56665;41.106;16.688;2023-04-15T14:25:58;19.89;48.49
69464;DHT22;56665;41.106;16.688;2023-04-15T14:29:01;19.36;49.69
69464;DHT22;56665;41.106;16.688;2023-04-15T14:32:06;19.35;49.94
69464;DHT22;56665;41.106;16.688;2023-04-15T14:35:11;19.20;50.41
69464;DHT22;56665;41.106;16.688;2023-04-15T14:38:15;19.05;50.61
69464;DHT22;56665;41.106;16.688;2023-04-15T14:41:19;18.92;51.19
69464;DHT22;56665;41.106;16.688;2023-04-15T14:44:25;18.96;51.58
69464;DHT22;56665;41.106;16.688;2023-04-15T14:47:31;18.96;51.77
69464;DHT22;56665;41.106;16.688;2023-04-15T14:50:35;18.77;52.19
69464;DHT22;56665;41.106;16.688;2023-04-15T14:53:40;18.51;52.10
69464;DHT22;56665;41.106;16.688;2023-04-15T14:56:44;18.20;53.03
69464;DHT22;56665;41.106;16.688;2023-04-15T14:59:48;18.12;53.06
69464;DHT22;56665;41.106;16.688;2023-04-15T15:02:52;18.23;52.94
69464;DHT22;56665;41.106;16.688;2023-04-15T15:05:56;18.34;52.50
69464;DHT22;56665;41.106;16.688;2023-04-15T15:09:02;18.20;52.08
69464;DHT22;56665;41.106;16.688;2023-04-15T15:12:06;18.07;52.14
69464;DHT22;56665;41.106;16.688;2023-04-15T15:15:11;17.71;53.22
69464;DHT22;56665;41.106;16.688;2023-04-15T15:18:16;17.61;53.60
69464;DHT22;56665;41.106;16.688;2023-04-15T15:21:20;17.30;53.88
69464;DHT22;56665;41.106;16.688;2023-04-15T15:24:24;17.16;53.91
69464;DHT22;56665;41.106;16.688;2023-04-15T15:27:29;17.03;54.70
69464;DHT22;56665;41.106;16.688;2023-04-15T15:30:33;16.89;54.24
69464;DHT22;56665;41.106;16.688;2023-04-15T15:33:37;16.77;53.89
69464;DHT22;56665;41.106;16.688;2023-04-15T15:36:41;16.80;54.02
69464;DHT22;56665;41.106;16.688;2023-04-15T15:39:46;16.72;55.15
69464;DHT22;56665;41.106;16.688;2023-04-15T15:42:51;16.44;57.25
69464;DHT22;56665;41.106;16.688;2023-04-15T15:45:56;16.22;59.11
69464;DHT22;56665;41.106;16.688;2023-04-15T15:49:02;16.15;60.06
69464;DHT22;56665;41.106;16.688;2023-04-15T15:52:06;16.10;63.43
69464;DHT22;56665;41.106;16.688;2023-04-15T15:55:12;16.00;63.56
69464;DHT22;56665;41.106;16.688;2023-04-15T15:58:16;15.78;65.40
69464;DHT22;56665;41.106;16.688;2023-04-15T16:01:21;15.62;68.00
69464;DHT22;56665;41.106;16.688;2023-04-15T16:04:25;15.57;69.59
69464;DHT22;56665;41.106;16.688;2023-04-15T16:07:28;15.40;70.87
69464;DHT22;56665;41.106;16.688;2023-04-15T16:10:33;15.36;72.48
69464;DHT22;56665;41.106;16.688;2023-04-15T16:13:37;15.12;72.96
69464;DHT22;56665;41.106;16.688;2023-04-15T16:16:42;15.02;74.89
69464;DHT22;56665;41.106;16.688;2023-04-15T16:19:46;14.98;75.97
69464;DHT22;56665;41.106;16.688;2023-04-15T16:22:50;14.95;76.57
69464;DHT22;56665;41.106;16.688;2023-04-15T16:25:53;14.91;77.43
69464;DHT22;56665;41.106;16.688;2023-04-15T16:28:57;14.89;78.17
69464;DHT22;56665;41.106;16.688;2023-04-15T16:32:01;14.99;78.60
69464;DHT22;56665;41.106;16.688;2023-04-15T16:35:05;14.97;77.84
69464;DHT22;56665;41.106;16.688;2023-04-15T16:38:09;14.87;77.63
69464;DHT22;56665;41.106;16.688;2023-04-15T16:41:13;14.83;78.27
69464;DHT22;56665;41.106;16.688;2023-04-15T16:44:17;14.80;78.61
69464;DHT22;56665;41.106;16.688;2023-04-15T16:47:21;14.78;79.15
69464;DHT22;56665;41.106;16.688;2023-04-15T16:50:25;14.80;78.77
69464;DHT22;56665;41.106;16.688;2023-04-15T16:53:29;14.84;78.87
69464;DHT22;56665;41.106;16.688;2023-04-15T16:56:33;14.80;78.88
69464;DHT22;56665;41.106;16.688;2023-04-15T16:59:37;14.77;78.85
69464;DHT22;56665;41.106;16.688;2023-04-15T17:02:41;14.70;77.98
69464;DHT22;56665;41.106;16.688;2023-04-15T17:05:45;14.57;78.74
69464;DHT22;56665;41.106;16.688;2023-04-15T17:08:49;14.55;79.45
69464;DHT22;56665;41.106;16.688;2023-04-15T17:11:53;14.57;79.42
69464;DHT22;56665;41.106;16.688;2023-04-15T17:14:57;14.57;79.60
69464;DHT22;56665;41.106;16.688;2023-04-15T17:18:04;14.50;79.28
69464;DHT22;56665;41.106;16.688;2023-04-15T17:21:09;14.39;80.70
69464;DHT22;56665;41.106;16.688;2023-04-15T17:24:17;14.39;80.64
69464;DHT22;56665;41.106;16.688;2023-04-15T17:27:26;14.37;81.37
69464;DHT22;56665;41.106;16.688;2023-04-15T17:30:32;14.36;81.59
69464;DHT22;56665;41.106;16.688;2023-04-15T17:33:57;14.33;81.68
69464;DHT22;56665;41.106;16.688;2023-04-15T17:37:20;14.30;81.81
69464;DHT22;56665;41.106;16.688;2023-04-15T17:40:44;14.25;82.39
69464;DHT22;56665;41.106;16.688;2023-04-15T17:44:08;14.20;82.35
69464;DHT22;56665;41.106;16.688;2023-04-15T17:47:33;14.10;82.00
69464;DHT22;56665;41.106;16.688;2023-04-15T17:50:59;14.09;82.03
69464;DHT22;56665;41.106;16.688;2023-04-15T17:54:22;14.04;82.06
69464;DHT22;56665;41.106;16.688;2023-04-15T17:57:48;14.01;80.92
69464;DHT22;56665;41.106;16.688;2023-04-15T18:01:12;13.81;81.35
69464;DHT22;56665;41.106;16.688;2023-04-15T18:04:36;13.79;81.60
69464;DHT22;56665;41.106;16.688;2023-04-15T18:08:00;13.87;82.11
69464;DHT22;56665;41.106;16.688;2023-04-15T18:11:24;13.84;81.61
69464;DHT22;56665;41.106;16.688;2023-04-15T18:14:48;13.79;81.20
69464;DHT22;56665;41.106;16.688;2023-04-15T18:18:11;13.68;81.01
69464;DHT22;56665;41.106;16.688;2023-04-15T18:21:15;13.57;80.76
69464;DHT22;56665;41.106;16.688;2023-04-15T18:24:19;13.58;81.69
69464;DHT22;56665;41.106;16.688;2023-04-15T18:27:23;13.59;81.89
69464;DHT22;56665;41.106;16.688;2023-04-15T18:30:27;13.70;81.89
69464;DHT22;56665;41.106;16.688;2023-04-15T18:33:31;13.65;81.30
69464;DHT22;56665;41.106;16.688;2023-04-15T18:36:35;13.61;81.16
69464;DHT22;56665;41.106;16.688;2023-04-15T18:39:40;13.65;81.58
69464;DHT22;56665;41.106;16.688;2023-04-15T18:42:44;13.67;80.46
69464;DHT22;56665;41.106;16.688;2023-04-15T18:45:50;13.74;81.29
69464;DHT22;56665;41.106;16.688;2023-04-15T18:48:53;13.81;80.93
69464;DHT22;56665;41.106;16.688;2023-04-15T18:52:00;13.84;80.39
69464;DHT22;56665;41.106;16.688;2023-04-15T18:55:04;13.82;79.83
69464;DHT22;56665;41.106;16.688;2023-04-15T18:58:10;13.74;80.22
69464;DHT22;56665;41.106;16.688;2023-04-15T19:01:14;13.73;80.42
69464;DHT22;56665;41.106;16.688;2023-04-15T19:04:18;13.71;80.51
69464;DHT22;56665;41.106;16.688;2023-04-15T19:07:23;13.71;80.51
69464;DHT22;56665;41.106;16.688;2023-04-15T19:10:27;13.62;81.60
69464;DHT22;56665;41.106;16.688;2023-04-15T19:13:31;13.44;82.82
69464;DHT22;56665;41.106;16.688;2023-04-15T19:16:35;13.40;83.55
69464;DHT22;56665;41.106;16.688;2023-04-15T19:19:38;13.41;83.67
69464;DHT22;56665;41.106;16.688;2023-04-15T19:22:42;13.28;83.91
69464;DHT22;56665;41.106;16.688;2023-04-15T19:25:46;13.16;84.96